Farmland, Indiana
Current Conditions -  °F | °C
As of 12:32 PM on Friday 31 Oct 2014 (Local Time) from KMIE Reporting Station
Light Rain Light Rain  
Wind Chill: 33°   Ceiling: 1500
Heat Index: 41°   Visibility: 10mi
Dew Point: 37°   Wind: 15mph
Humidity: 86%   Direction: 320°NW
Pressure: 29.97"   Gusts: NA
Location:  40.19°N, 85.13°W
Report Text: KMIE 311632Z 32013KT 10SM -RA BKN015 BKN021 OVC030 05/03 A2997 RMK AO2 P0001 T00500028
Loading
Personal Weather Stations






























Interactive Weather Map
Tropical Storm Tracking
New forecast layout! Learn more

10-Day Weather Forecast

Advertisements
Track Severe Weather on mobile